createdAt,value
2017-05-30T00:00:44.669Z,17.82
2017-05-30T00:03:13.736Z,21.20
2017-05-30T00:05:42.797Z,21.80
2017-05-30T00:08:11.879Z,23.34
2017-05-30T00:10:40.931Z,22.52
2017-05-30T00:13:09.987Z,23.54
2017-05-30T00:15:39.054Z,22.90
2017-05-30T00:18:08.252Z,24.52
2017-05-30T00:20:37.321Z,23.96
2017-05-30T00:23:06.409Z,23.74
2017-05-30T00:25:35.475Z,26.16
2017-05-30T00:28:04.571Z,26.38
2017-05-30T00:30:33.627Z,23.20
2017-05-30T00:33:02.689Z,24.94
2017-05-30T00:35:31.762Z,26.56
2017-05-30T00:38:00.877Z,29.34
2017-05-30T00:40:29.946Z,28.76
2017-05-30T00:42:59.001Z,32.92
2017-05-30T00:45:28.085Z,33.36
2017-05-30T00:47:57.158Z,33.78
2017-05-30T00:50:26.229Z,37.46
2017-05-30T00:52:55.306Z,35.00
2017-05-30T00:55:24.371Z,39.16
2017-05-30T00:57:53.423Z,38.62
2017-05-30T01:00:23.220Z,31.84
2017-05-30T01:02:52.271Z,30.14
2017-05-30T01:05:21.333Z,28.64
2017-05-30T01:07:50.417Z,31.08
2017-05-30T01:10:19.469Z,34.26
2017-05-30T01:12:48.544Z,39.20
2017-05-30T01:15:17.653Z,36.24
2017-05-30T01:17:46.735Z,38.94
2017-05-30T01:20:15.801Z,37.22
2017-05-30T01:22:45.204Z,36.76
2017-05-30T01:25:14.315Z,37.48
2017-05-30T01:27:43.397Z,43.36
2017-05-30T01:30:12.527Z,45.40
2017-05-30T01:32:41.606Z,44.90
2017-05-30T01:35:11.122Z,42.74
2017-05-30T01:37:40.225Z,42.80
2017-05-30T01:40:09.300Z,46.38
2017-05-30T01:42:38.381Z,45.30
2017-05-30T01:45:07.468Z,43.76
2017-05-30T01:47:36.535Z,44.42
2017-05-30T01:50:05.681Z,46.76
2017-05-30T01:52:34.757Z,48.14
2017-05-30T01:55:03.838Z,49.12
2017-05-30T01:57:32.905Z,44.02
2017-05-30T02:00:01.950Z,46.38
2017-05-30T02:02:31.020Z,50.54
2017-05-30T02:05:00.071Z,50.24
2017-05-30T02:07:29.146Z,51.30
2017-05-30T02:09:58.334Z,47.56
2017-05-30T02:12:27.397Z,48.84
2017-05-30T02:14:56.909Z,47.08
2017-05-30T02:17:25.977Z,48.66
2017-05-30T02:19:55.052Z,44.18
2017-05-30T02:22:24.310Z,45.04
2017-05-30T02:24:53.369Z,43.62
2017-05-30T02:27:22.452Z,42.08
2017-05-30T02:29:51.682Z,41.84
2017-05-30T02:32:20.759Z,43.36
2017-05-30T02:34:49.889Z,41.82
2017-05-30T02:37:18.946Z,40.30
2017-05-30T02:39:48.067Z,38.18
2017-05-30T02:42:17.156Z,39.94
2017-05-30T02:44:46.227Z,39.90
2017-05-30T02:47:15.311Z,40.54
2017-05-30T02:49:44.394Z,38.40
2017-05-30T02:52:13.446Z,38.14
2017-05-30T02:54:42.501Z,40.18
2017-05-30T02:57:11.608Z,40.86
2017-05-30T02:59:40.672Z,42.42
2017-05-30T03:02:09.776Z,40.08
2017-05-30T03:04:38.850Z,40.70
2017-05-30T03:07:08.289Z,40.18
2017-05-30T03:09:37.368Z,44.20
2017-05-30T03:12:06.475Z,39.78
2017-05-30T03:14:35.546Z,41.70
2017-05-30T03:17:04.608Z,40.50
2017-05-30T03:19:33.660Z,41.26
2017-05-30T03:22:02.772Z,43.06
2017-05-30T03:24:31.836Z,43.70
2017-05-30T03:27:00.916Z,42.28
2017-05-30T03:29:29.993Z,41.94
2017-05-30T03:31:59.048Z,43.94
2017-05-30T03:34:28.152Z,43.08
2017-05-30T03:36:57.216Z,39.32
2017-05-30T03:39:26.274Z,42.52
2017-05-30T03:41:55.340Z,41.54
2017-05-30T03:44:24.679Z,44.52
2017-05-30T03:46:53.736Z,40.46
2017-05-30T03:49:22.810Z,42.44
2017-05-30T03:51:51.899Z,41.26
2017-05-30T03:54:20.949Z,43.26
2017-05-30T03:56:50.498Z,43.92
2017-05-30T03:59:19.565Z,43.82
2017-05-30T04:01:48.618Z,42.18
2017-05-30T04:04:17.685Z,45.92
2017-05-30T04:06:47.036Z,43.84
2017-05-30T04:09:16.293Z,40.70
2017-05-30T04:11:45.359Z,41.74
2017-05-30T04:14:14.734Z,42.64
2017-05-30T04:16:43.820Z,43.96
2017-05-30T04:19:12.892Z,43.92
2017-05-30T04:21:41.965Z,47.24
2017-05-30T04:24:11.046Z,44.20
2017-05-30T04:26:40.128Z,48.50
2017-05-30T04:29:09.272Z,52.88
2017-05-30T04:31:38.341Z,52.14
2017-05-30T04:34:07.396Z,53.44
2017-05-30T04:36:36.494Z,54.32
2017-05-30T04:39:05.595Z,56.66
2017-05-30T04:41:34.666Z,53.60
2017-05-30T04:44:03.833Z,53.14
2017-05-30T04:46:32.921Z,55.22
2017-05-30T04:49:02.017Z,59.10
2017-05-30T04:51:31.065Z,60.24
2017-05-30T04:54:00.111Z,59.68
2017-05-30T04:56:29.189Z,57.84
2017-05-30T04:58:58.257Z,57.02
2017-05-30T05:01:27.375Z,57.68
2017-05-30T05:03:56.813Z,60.10
2017-05-30T05:06:25.926Z,61.12
2017-05-30T05:08:55.137Z,57.06
2017-05-30T05:11:24.220Z,58.02
2017-05-30T05:13:53.284Z,56.34
2017-05-30T05:16:22.357Z,57.48
2017-05-30T05:18:51.427Z,58.16
2017-05-30T05:21:21.224Z,56.58
2017-05-30T05:23:50.275Z,57.98
2017-05-30T05:26:19.349Z,53.38
2017-05-30T05:28:48.401Z,53.46
2017-05-30T05:31:17.475Z,51.04
2017-05-30T05:33:46.766Z,55.12
2017-05-30T05:36:15.846Z,52.80
2017-05-30T05:38:44.919Z,50.52
2017-05-30T05:41:13.984Z,52.78
2017-05-30T05:43:43.173Z,44.92
2017-05-30T05:46:12.225Z,49.00
2017-05-30T05:48:41.316Z,47.30
2017-05-30T05:51:10.386Z,41.00
2017-05-30T05:53:39.457Z,42.76
2017-05-30T05:56:08.581Z,44.22
2017-05-30T05:58:37.983Z,42.70
2017-05-30T06:01:07.049Z,33.46
2017-05-30T06:03:36.113Z,32.66
2017-05-30T06:06:05.216Z,30.10
2017-05-30T06:08:34.297Z,24.16
2017-05-30T06:11:03.396Z,22.12
2017-05-30T06:13:32.500Z,22.18
2017-05-30T06:16:01.566Z,22.02
2017-05-30T06:18:30.634Z,24.42
2017-05-30T06:20:59.701Z,21.14
2017-05-30T06:23:28.775Z,19.78
2017-05-30T06:25:57.824Z,20.86
2017-05-30T06:28:26.910Z,20.76
2017-05-30T06:30:55.976Z,21.62
2017-05-30T06:33:25.060Z,20.82
2017-05-30T06:35:54.284Z,21.80
2017-05-30T06:38:23.407Z,21.52
2017-05-30T06:40:52.489Z,20.64
2017-05-30T06:43:21.556Z,20.70
2017-05-30T06:45:50.644Z,21.10
2017-05-30T06:48:20.343Z,21.64
2017-05-30T06:50:49.722Z,17.46
2017-05-30T06:53:18.794Z,19.42
2017-05-30T06:55:47.864Z,16.34
2017-05-30T06:58:16.948Z,14.34
2017-05-30T07:00:46.013Z,12.80
2017-05-30T07:03:15.095Z,12.14
2017-05-30T07:05:44.160Z,12.92
2017-05-30T07:08:13.224Z,11.72
2017-05-30T07:10:42.319Z,12.80
2017-05-30T07:13:11.390Z,13.02
2017-05-30T07:15:40.445Z,12.82
2017-05-30T07:18:09.647Z,11.90
2017-05-30T07:20:38.764Z,13.36
2017-05-30T07:23:07.842Z,15.28
2017-05-30T07:25:36.920Z,13.20
2017-05-30T07:28:05.346Z,14.00
2017-05-30T07:30:34.424Z,13.38
2017-05-30T07:33:03.481Z,14.24
2017-05-30T07:35:32.560Z,14.64
2017-05-30T07:38:01.617Z,13.40
2017-05-30T07:40:30.693Z,13.42
2017-05-30T07:42:59.796Z,13.76
2017-05-30T07:45:28.850Z,14.66
2017-05-30T07:47:57.953Z,13.18
2017-05-30T07:50:27.022Z,12.36
2017-05-30T07:52:56.087Z,12.92
2017-05-30T07:55:25.212Z,12.82
2017-05-30T07:57:54.289Z,12.76
2017-05-30T08:00:23.500Z,13.40
2017-05-30T08:02:52.570Z,11.54
2017-05-30T08:05:21.645Z,9.82
2017-05-30T08:07:51.173Z,10.70
2017-05-30T08:10:20.239Z,10.60
2017-05-30T08:12:48.609Z,11.70
2017-05-30T08:15:17.687Z,12.80
2017-05-30T08:17:45.970Z,13.06
2017-05-30T08:20:15.033Z,10.62
2017-05-30T08:22:44.090Z,9.58
2017-05-30T08:25:12.436Z,9.86
2017-05-30T08:27:41.486Z,8.70
2017-05-30T08:30:10.557Z,7.82
2017-05-30T08:32:39.629Z,8.96
2017-05-30T08:35:08.677Z,8.12
2017-05-30T08:37:37.809Z,8.34
2017-05-30T08:40:06.861Z,8.02
2017-05-30T08:42:35.949Z,8.12
2017-05-30T08:45:05.004Z,8.22
2017-05-30T08:47:34.088Z,9.04
2017-05-30T08:50:03.172Z,7.62
2017-05-30T08:52:32.228Z,7.98
2017-05-30T08:55:00.525Z,8.14
2017-05-30T08:57:28.805Z,7.78
2017-05-30T08:59:58.110Z,9.08
2017-05-30T09:02:26.420Z,9.20
2017-05-30T09:04:55.468Z,8.80
2017-05-30T09:07:24.549Z,9.90
2017-05-30T09:09:53.588Z,10.70
2017-05-30T09:12:21.870Z,9.98
2017-05-30T09:14:50.931Z,10.38
2017-05-30T09:17:20.012Z,9.44
2017-05-30T09:19:49.517Z,8.68
2017-05-30T09:22:18.560Z,8.10
2017-05-30T09:24:47.871Z,7.36
2017-05-30T09:27:17.013Z,9.08
2017-05-30T09:29:46.064Z,10.16
2017-05-30T09:32:15.152Z,9.48
2017-05-30T09:34:43.471Z,8.40
2017-05-30T09:37:11.775Z,10.08
2017-05-30T09:39:40.875Z,8.40
2017-05-30T09:42:09.161Z,7.86
2017-05-30T09:44:38.215Z,7.32
2017-05-30T09:47:06.528Z,6.70
2017-05-30T09:49:35.566Z,6.44
2017-05-30T09:52:04.639Z,8.50
2017-05-30T09:54:33.718Z,8.36
2017-05-30T09:57:02.795Z,6.18
2017-05-30T09:59:32.052Z,7.46
2017-05-30T10:02:00.338Z,7.80
2017-05-30T10:04:28.647Z,8.70
2017-05-30T10:06:57.690Z,8.92
2017-05-30T10:09:26.764Z,9.00
2017-05-30T10:11:55.830Z,8.38
2017-05-30T10:14:24.324Z,9.80
2017-05-30T10:16:52.621Z,9.72
2017-05-30T10:19:21.683Z,9.64
2017-05-30T10:21:49.969Z,12.24
2017-05-30T10:24:19.033Z,14.00
2017-05-30T10:26:48.105Z,13.62
2017-05-30T10:29:17.153Z,13.82
2017-05-30T10:31:46.220Z,12.42
2017-05-30T10:34:15.314Z,11.94
2017-05-30T10:36:43.618Z,13.70
2017-05-30T10:39:12.678Z,13.64
2017-05-30T10:41:40.981Z,14.92
2017-05-30T10:44:09.403Z,14.76
2017-05-30T10:46:37.946Z,14.14
2017-05-30T10:49:07.029Z,16.40
2017-05-30T10:51:36.077Z,15.66
2017-05-30T10:54:05.145Z,14.66
2017-05-30T10:56:33.454Z,14.42
2017-05-30T10:59:02.551Z,13.86
2017-05-30T11:01:30.896Z,13.74
2017-05-30T11:03:59.204Z,13.96
2017-05-30T11:06:28.283Z,13.66
2017-05-30T11:08:57.377Z,12.62
2017-05-30T11:11:25.684Z,13.88
2017-05-30T11:13:53.985Z,11.42
2017-05-30T11:16:23.054Z,12.26
2017-05-30T11:18:52.140Z,11.20
2017-05-30T11:21:21.233Z,11.40
2017-05-30T11:23:50.294Z,10.28
2017-05-30T11:26:19.373Z,9.22
2017-05-30T11:28:48.658Z,8.76
2017-05-30T11:31:17.719Z,9.14
2017-05-30T11:33:46.026Z,9.48
2017-05-30T11:36:15.133Z,9.26
2017-05-30T11:38:44.192Z,7.82
2017-05-30T11:41:13.380Z,8.38
2017-05-30T11:43:41.664Z,9.48
2017-05-30T11:46:10.768Z,10.20
2017-05-30T11:48:39.841Z,11.76
2017-05-30T11:51:08.893Z,11.28
2017-05-30T11:53:37.956Z,11.36
2017-05-30T11:56:06.280Z,10.00
2017-05-30T11:58:35.321Z,11.48
2017-05-30T12:01:03.609Z,11.12
2017-05-30T12:03:31.937Z,12.64
2017-05-30T12:06:00.252Z,13.08
2017-05-30T12:08:29.312Z,14.66
2017-05-30T12:10:57.628Z,13.40
2017-05-30T12:13:25.924Z,14.30
2017-05-30T12:15:54.225Z,15.50
2017-05-30T12:18:23.303Z,13.68
2017-05-30T12:20:52.792Z,13.02
2017-05-30T12:23:21.856Z,11.96
2017-05-30T12:25:50.422Z,10.98
2017-05-30T12:28:19.846Z,12.22
2017-05-30T12:30:48.975Z,12.72
2017-05-30T12:33:17.302Z,11.04
2017-05-30T12:35:45.617Z,11.72
2017-05-30T12:38:13.924Z,10.48
2017-05-30T12:40:42.984Z,11.18
2017-05-30T12:43:11.306Z,10.70
2017-05-30T12:45:39.609Z,11.56
2017-05-30T12:48:08.688Z,12.48
2017-05-30T12:50:37.805Z,13.36
2017-05-30T12:53:06.987Z,12.78
2017-05-30T12:55:36.061Z,13.96
2017-05-30T12:58:05.152Z,11.10
2017-05-30T13:00:34.246Z,13.88
2017-05-30T13:03:03.372Z,25.16
2017-05-30T13:05:31.673Z,26.16
2017-05-30T13:08:00.727Z,30.98
2017-05-30T13:10:29.816Z,31.22
2017-05-30T13:12:58.108Z,32.52
2017-05-30T13:15:27.180Z,33.14
2017-05-30T13:17:56.362Z,33.38
2017-05-30T13:20:25.440Z,16.82
2017-05-30T13:22:54.525Z,13.58
2017-05-30T13:25:23.585Z,13.50
2017-05-30T13:27:53.596Z,8.94
2017-05-30T13:30:22.656Z,10.92
2017-05-30T13:32:51.473Z,10.40
2017-05-30T13:35:20.548Z,14.22
2017-05-30T13:37:49.616Z,10.84
2017-05-30T13:40:18.684Z,11.02
2017-05-30T13:42:46.979Z,11.90
2017-05-30T13:45:15.296Z,12.20
2017-05-30T13:47:44.383Z,13.82
2017-05-30T13:50:13.509Z,13.30
2017-05-30T13:52:41.788Z,13.26
2017-05-30T13:55:11.056Z,18.38
2017-05-30T13:57:40.139Z,21.56
2017-05-30T14:00:09.382Z,20.74
2017-05-30T14:02:38.452Z,19.80
2017-05-30T14:05:06.904Z,19.80
2017-05-30T14:07:35.232Z,22.22
2017-05-30T14:10:04.344Z,22.34
2017-05-30T14:12:33.396Z,24.14
2017-05-30T14:15:02.484Z,25.08
2017-05-30T14:17:31.576Z,27.00
2017-05-30T14:20:01.324Z,27.18
2017-05-30T14:22:30.382Z,27.12
2017-05-30T14:24:58.695Z,25.54
2017-05-30T14:27:26.976Z,25.20
2017-05-30T14:29:56.074Z,24.00
2017-05-30T14:32:24.385Z,24.42
2017-05-30T14:34:53.452Z,24.00
2017-05-30T14:37:22.557Z,22.50
2017-05-30T14:39:51.627Z,23.44
2017-05-30T14:42:19.927Z,23.04
2017-05-30T14:44:48.226Z,22.08
2017-05-30T14:47:16.578Z,22.28
2017-05-30T14:49:45.642Z,22.40
2017-05-30T14:52:14.736Z,24.56
2017-05-30T14:54:43.792Z,24.00
2017-05-30T14:57:12.867Z,25.42
2017-05-30T14:59:41.970Z,23.32
2017-05-30T15:02:10.470Z,24.10
2017-05-30T15:04:38.938Z,24.46
2017-05-30T15:07:08.070Z,21.16
2017-05-30T15:09:37.135Z,19.98
2017-05-30T15:12:06.211Z,18.44
2017-05-30T15:14:35.332Z,16.92
2017-05-30T15:17:04.657Z,14.22
2017-05-30T15:19:33.705Z,12.90
2017-05-30T15:22:02.035Z,12.06
2017-05-30T15:24:31.126Z,11.96
2017-05-30T15:27:00.982Z,13.50
2017-05-30T15:29:30.057Z,11.90
2017-05-30T15:31:59.245Z,11.36
2017-05-30T15:34:28.312Z,11.68
2017-05-30T15:36:57.417Z,9.52
2017-05-30T15:39:26.485Z,10.34
2017-05-30T15:41:55.536Z,10.16
2017-05-30T15:44:24.604Z,8.80
2017-05-30T15:46:53.680Z,9.20
2017-05-30T15:49:22.737Z,8.50
2017-05-30T15:51:51.845Z,8.96
2017-05-30T15:54:20.153Z,8.36
2017-05-30T15:56:49.506Z,7.42
2017-05-30T15:59:18.569Z,7.16
2017-05-30T16:01:46.897Z,6.26
2017-05-30T16:04:15.940Z,5.72
2017-05-30T16:06:45.016Z,6.46
2017-05-30T16:09:14.100Z,5.16
2017-05-30T16:11:43.184Z,5.62
2017-05-30T16:14:12.289Z,6.20
2017-05-30T16:16:40.565Z,6.30
2017-05-30T16:19:09.664Z,5.12
2017-05-30T16:21:38.761Z,4.18
2017-05-30T16:24:07.055Z,3.98
2017-05-30T16:26:35.326Z,4.50
2017-05-30T16:29:04.420Z,4.66
2017-05-30T16:31:33.476Z,4.28
2017-05-30T16:34:01.819Z,4.14
2017-05-30T16:36:30.133Z,3.42
2017-05-30T16:38:59.185Z,3.90
2017-05-30T16:41:29.096Z,3.10
2017-05-30T16:43:58.158Z,3.56
2017-05-30T16:46:27.217Z,3.52
2017-05-30T16:48:56.295Z,3.50
2017-05-30T16:51:25.352Z,3.36
2017-05-30T16:53:54.453Z,3.32
2017-05-30T16:56:23.525Z,3.32
2017-05-30T16:58:52.614Z,3.50
2017-05-30T17:01:21.686Z,3.50
2017-05-30T17:03:50.205Z,3.06
2017-05-30T17:06:19.266Z,3.40
2017-05-30T17:08:48.324Z,2.90
2017-05-30T17:11:16.644Z,3.68
2017-05-30T17:13:44.935Z,3.66
2017-05-30T17:16:14.002Z,3.18
2017-05-30T17:18:43.072Z,4.00
2017-05-30T17:21:11.388Z,3.12
2017-05-30T17:23:40.923Z,3.46
2017-05-30T17:26:10.004Z,3.86
2017-05-30T17:28:39.066Z,4.08
2017-05-30T17:31:08.322Z,3.40
2017-05-30T17:33:37.395Z,3.66
2017-05-30T17:36:06.446Z,3.74
2017-05-30T17:38:35.531Z,4.80
2017-05-30T17:41:04.685Z,5.78
2017-05-30T17:43:33.924Z,5.80
2017-05-30T17:46:03.051Z,5.76
2017-05-30T17:48:32.126Z,6.44
2017-05-30T17:51:01.247Z,10.50
2017-05-30T17:53:30.328Z,12.62
2017-05-30T17:55:59.435Z,14.62
2017-05-30T17:58:28.525Z,16.26
2017-05-30T18:00:57.605Z,16.26
2017-05-30T18:03:26.689Z,16.60
2017-05-30T18:05:55.817Z,17.74
2017-05-30T18:08:25.001Z,18.88
2017-05-30T18:10:53.307Z,17.66
2017-05-30T18:13:22.440Z,18.74
2017-05-30T18:15:51.851Z,19.34
2017-05-30T18:18:20.944Z,18.52
2017-05-30T18:20:51.462Z,17.80
2017-05-30T18:23:20.540Z,17.88
2017-05-30T18:25:48.863Z,17.66
2017-05-30T18:28:17.163Z,19.14
2017-05-30T18:30:46.225Z,17.72
2017-05-30T18:33:15.317Z,17.14
2017-05-30T18:35:44.401Z,16.98
2017-05-30T18:38:12.703Z,15.46
2017-05-30T18:40:41.867Z,18.28
2017-05-30T18:43:10.956Z,16.70
2017-05-30T18:45:40.059Z,16.04
2017-05-30T18:48:09.131Z,17.14
2017-05-30T18:50:38.578Z,15.90
2017-05-30T18:53:07.664Z,16.22
2017-05-30T18:55:36.780Z,15.86
2017-05-30T18:58:05.861Z,16.08
2017-05-30T19:00:34.931Z,15.58
2017-05-30T19:03:03.249Z,15.56
2017-05-30T19:05:31.585Z,13.64
2017-05-30T19:08:00.658Z,14.78
2017-05-30T19:10:29.814Z,14.54
2017-05-30T19:12:58.963Z,13.54
2017-05-30T19:15:28.082Z,14.62
2017-05-30T19:17:56.381Z,13.64
2017-05-30T19:20:25.489Z,12.66
2017-05-30T19:22:54.556Z,13.32
2017-05-30T19:25:23.640Z,14.68
2017-05-30T19:27:52.977Z,13.50
2017-05-30T19:30:22.097Z,12.72
2017-05-30T19:32:50.511Z,13.46
2017-05-30T19:35:19.593Z,13.04
2017-05-30T19:37:48.017Z,12.02
2017-05-30T19:40:17.094Z,12.52
2017-05-30T19:42:45.380Z,13.20
2017-05-30T19:45:13.697Z,11.70
2017-05-30T19:47:42.007Z,12.10
2017-05-30T19:50:11.065Z,11.16
2017-05-30T19:52:40.773Z,11.68
2017-05-30T19:55:10.785Z,10.88
2017-05-30T19:57:40.223Z,11.28
2017-05-30T20:00:09.321Z,11.30
2017-05-30T20:02:39.180Z,10.86
2017-05-30T20:05:07.529Z,10.28
2017-05-30T20:07:36.594Z,10.88
2017-05-30T20:10:05.694Z,9.92
2017-05-30T20:12:34.770Z,9.80
2017-05-30T20:15:03.876Z,10.08
2017-05-30T20:17:32.973Z,10.22
2017-05-30T20:20:02.073Z,8.66
2017-05-30T20:22:31.136Z,9.28
2017-05-30T20:25:00.065Z,8.46
2017-05-30T20:27:29.152Z,8.96
2017-05-30T20:29:58.210Z,8.02
2017-05-30T20:32:26.534Z,9.72
2017-05-30T20:34:55.608Z,8.82
2017-05-30T20:37:23.901Z,8.66
2017-05-30T20:39:53.000Z,10.32
2017-05-30T20:42:21.321Z,8.58
2017-05-30T20:44:50.377Z,9.04
2017-05-30T20:47:19.441Z,8.70
2017-05-30T20:49:48.494Z,9.42
2017-05-30T20:52:17.570Z,7.80
2017-05-30T20:54:46.670Z,8.54
2017-05-30T20:57:15.722Z,8.64
2017-05-30T20:59:44.782Z,8.80
2017-05-30T21:02:13.875Z,7.98
2017-05-30T21:04:42.959Z,8.16
2017-05-30T21:07:12.061Z,8.02
2017-05-30T21:09:42.103Z,7.14
2017-05-30T21:12:11.184Z,7.38
2017-05-30T21:14:40.349Z,7.16
2017-05-30T21:17:09.425Z,7.08
2017-05-30T21:19:38.516Z,6.46
2017-05-30T21:22:07.613Z,7.42
2017-05-30T21:24:36.689Z,7.18
2017-05-30T21:27:05.858Z,7.26
2017-05-30T21:29:34.937Z,7.50
2017-05-30T21:32:04.018Z,7.38
2017-05-30T21:34:33.199Z,6.80
2017-05-30T21:37:02.266Z,6.98
2017-05-30T21:39:31.321Z,6.60
2017-05-30T21:42:00.384Z,7.26
2017-05-30T21:44:29.446Z,6.52
2017-05-30T21:46:58.493Z,6.80
2017-05-30T21:49:27.540Z,7.42
2017-05-30T21:51:56.604Z,8.14
2017-05-30T21:54:25.657Z,6.40
2017-05-30T21:56:54.741Z,6.58
2017-05-30T21:59:23.831Z,6.54
2017-05-30T22:01:52.938Z,6.68
2017-05-30T22:04:22.137Z,6.58
2017-05-30T22:06:51.989Z,5.92
2017-05-30T22:09:21.085Z,5.74
2017-05-30T22:11:50.509Z,6.58
2017-05-30T22:14:19.593Z,5.96
2017-05-30T22:16:48.636Z,6.52
2017-05-30T22:19:17.687Z,6.10
2017-05-30T22:21:45.998Z,5.08
2017-05-30T22:24:14.325Z,5.56
2017-05-30T22:26:43.385Z,5.76
2017-05-30T22:29:12.431Z,5.78
2017-05-30T22:31:40.713Z,4.78
2017-05-30T22:34:09.818Z,4.72
2017-05-30T22:36:38.885Z,5.84
2017-05-30T22:39:07.929Z,5.40
2017-05-30T22:41:36.224Z,6.06
2017-05-30T22:44:04.526Z,5.02
2017-05-30T22:46:32.825Z,5.38
2017-05-30T22:49:01.916Z,5.20
2017-05-30T22:51:30.197Z,5.48
2017-05-30T22:53:59.267Z,5.48
2017-05-30T22:56:27.543Z,5.30
2017-05-30T22:58:56.614Z,5.42
2017-05-30T23:01:24.907Z,5.00
2017-05-30T23:03:53.179Z,5.44
2017-05-30T23:06:21.485Z,4.52
2017-05-30T23:08:50.563Z,4.36
2017-05-30T23:11:18.851Z,5.40
2017-05-30T23:13:47.130Z,4.82
2017-05-30T23:16:15.444Z,4.66
2017-05-30T23:18:44.556Z,4.92
2017-05-30T23:21:13.665Z,4.54
2017-05-30T23:23:42.750Z,4.92
2017-05-30T23:26:11.832Z,4.76
2017-05-30T23:28:40.894Z,4.32
2017-05-30T23:31:10.144Z,4.54
2017-05-30T23:33:39.190Z,5.02
2017-05-30T23:36:07.539Z,4.50
2017-05-30T23:38:36.605Z,4.42
2017-05-30T23:41:05.664Z,5.00
2017-05-30T23:43:34.169Z,4.78
2017-05-30T23:46:03.226Z,4.34
2017-05-30T23:48:32.297Z,5.30
2017-05-30T23:51:01.364Z,5.28
2017-05-30T23:53:30.413Z,4.86
2017-05-30T23:55:58.713Z,5.40
2017-05-30T23:58:27.751Z,4.50
